createdAt,value
2018-08-31T00:00:07.582Z,8.10
2018-08-31T00:02:35.655Z,6.07
2018-08-31T00:05:23.695Z,6.28
2018-08-31T00:07:50.748Z,5.68
2018-08-31T00:10:17.911Z,7.62
2018-08-31T00:12:44.943Z,5.72
2018-08-31T00:15:11.991Z,8.52
2018-08-31T00:17:39.046Z,5.47
2018-08-31T00:20:06.092Z,6.07
2018-08-31T00:22:33.138Z,5.78
2018-08-31T00:25:00.191Z,5.72
2018-08-31T00:27:33.073Z,6.93
2018-08-31T00:30:06.060Z,5.95
2018-08-31T00:32:37.104Z,5.22
2018-08-31T00:35:04.157Z,6.70
2018-08-31T00:37:31.200Z,6.95
2018-08-31T00:39:58.361Z,6.90
2018-08-31T00:42:25.608Z,5.90
2018-08-31T00:44:52.653Z,7.47
2018-08-31T00:47:19.704Z,7.07
2018-08-31T00:49:46.719Z,5.62
2018-08-31T00:52:13.798Z,7.10
2018-08-31T00:54:40.847Z,5.03
2018-08-31T00:57:07.901Z,5.45
2018-08-31T00:59:34.945Z,5.32
2018-08-31T01:02:01.962Z,6.10
2018-08-31T01:04:29.047Z,5.50
2018-08-31T01:06:56.091Z,7.15
2018-08-31T01:09:24.060Z,7.82
2018-08-31T01:11:51.115Z,5.62
2018-08-31T01:14:18.134Z,5.82
2018-08-31T01:16:55.463Z,5.35
2018-08-31T01:19:22.496Z,8.35
2018-08-31T01:21:50.362Z,5.95
2018-08-31T01:24:17.411Z,6.80
2018-08-31T01:26:44.466Z,6.47
2018-08-31T01:29:11.509Z,5.72
2018-08-31T01:31:38.558Z,6.65
2018-08-31T01:34:05.613Z,6.25
2018-08-31T01:36:32.655Z,6.50
2018-08-31T01:38:59.704Z,5.68
2018-08-31T01:41:26.759Z,4.30
2018-08-31T01:43:54.312Z,4.28
2018-08-31T01:46:21.367Z,6.12
2018-08-31T01:48:49.649Z,5.05
2018-08-31T01:51:16.688Z,6.43
2018-08-31T01:53:44.664Z,6.37
2018-08-31T01:56:11.707Z,5.75
2018-08-31T01:58:38.756Z,6.68
2018-08-31T02:01:05.819Z,5.80
2018-08-31T02:03:32.856Z,8.82
2018-08-31T02:05:59.904Z,5.75
2018-08-31T02:08:26.955Z,6.87
2018-08-31T02:10:53.976Z,7.75
2018-08-31T02:13:21.050Z,5.97
2018-08-31T02:15:48.106Z,5.78
2018-08-31T02:18:15.146Z,5.20
2018-08-31T02:20:42.603Z,5.70
2018-08-31T02:23:09.652Z,4.68
2018-08-31T02:25:36.704Z,6.15
2018-08-31T02:28:03.749Z,4.75
2018-08-31T02:30:30.797Z,4.65
2018-08-31T02:32:57.851Z,4.97
2018-08-31T02:35:24.894Z,5.53
2018-08-31T02:37:51.941Z,4.55
2018-08-31T02:40:20.021Z,5.70
2018-08-31T02:42:47.069Z,4.10
2018-08-31T02:45:14.115Z,4.10
2018-08-31T02:47:41.161Z,4.18
2018-08-31T02:50:09.030Z,4.80
2018-08-31T02:52:36.043Z,5.35
2018-08-31T02:55:03.131Z,4.75
2018-08-31T02:57:31.609Z,6.47
2018-08-31T02:59:58.972Z,4.65
2018-08-31T03:02:26.013Z,5.43
2018-08-31T03:05:15.021Z,5.03
2018-08-31T03:08:00.757Z,6.82
2018-08-31T03:10:27.818Z,7.40
2018-08-31T03:12:55.680Z,5.18
2018-08-31T03:15:22.793Z,4.40
2018-08-31T03:17:49.885Z,7.40
2018-08-31T03:20:17.236Z,5.37
2018-08-31T03:22:44.388Z,5.87
2018-08-31T03:25:11.435Z,5.75
2018-08-31T03:27:38.996Z,4.20
2018-08-31T03:30:06.052Z,5.50
2018-08-31T03:32:33.098Z,3.90
2018-08-31T03:35:00.142Z,4.10
2018-08-31T03:37:27.189Z,5.65
2018-08-31T03:39:54.245Z,4.40
2018-08-31T03:42:21.292Z,4.45
2018-08-31T03:44:48.339Z,4.37
2018-08-31T03:47:15.431Z,6.53
2018-08-31T03:49:42.541Z,4.82
2018-08-31T03:52:09.584Z,4.78
2018-08-31T03:54:36.704Z,4.28
2018-08-31T03:57:03.784Z,5.50
2018-08-31T03:59:30.838Z,5.10
2018-08-31T04:01:57.881Z,5.87
2018-08-31T04:04:24.930Z,3.83
2018-08-31T04:06:52.906Z,4.25
2018-08-31T04:09:19.953Z,4.40
2018-08-31T04:11:46.997Z,4.68
2018-08-31T04:14:14.763Z,4.72
2018-08-31T04:16:41.815Z,4.55
2018-08-31T04:19:08.862Z,4.40
2018-08-31T04:21:35.909Z,5.47
2018-08-31T04:24:02.964Z,5.00
2018-08-31T04:26:30.114Z,4.85
2018-08-31T04:28:57.157Z,5.90
2018-08-31T04:31:24.206Z,4.85
2018-08-31T04:33:51.357Z,7.30
2018-08-31T04:36:18.412Z,4.47
2018-08-31T04:38:45.455Z,5.18
2018-08-31T04:41:12.605Z,6.65
2018-08-31T04:43:39.757Z,4.82
2018-08-31T04:46:29.918Z,8.40
2018-08-31T04:48:57.405Z,4.50
2018-08-31T04:51:24.455Z,7.85
2018-08-31T04:53:51.508Z,6.32
2018-08-31T04:56:19.064Z,5.43
2018-08-31T04:58:46.182Z,5.30
2018-08-31T05:01:13.370Z,5.20
2018-08-31T05:03:40.825Z,4.62
2018-08-31T05:06:07.879Z,4.50
2018-08-31T05:08:35.036Z,5.07
2018-08-31T05:11:02.073Z,5.07
2018-08-31T05:13:29.223Z,7.90
2018-08-31T05:15:56.526Z,5.65
2018-08-31T05:18:23.525Z,4.78
2018-08-31T05:20:50.573Z,5.95
2018-08-31T05:23:17.626Z,5.65
2018-08-31T05:25:44.671Z,4.07
2018-08-31T05:28:11.721Z,5.80
2018-08-31T05:30:38.871Z,4.87
2018-08-31T05:33:06.846Z,6.50
2018-08-31T05:35:33.890Z,5.60
2018-08-31T05:38:01.042Z,5.20
2018-08-31T05:40:28.090Z,8.15
2018-08-31T05:42:55.148Z,5.87
2018-08-31T05:45:42.349Z,9.10
2018-08-31T05:48:09.414Z,7.43
2018-08-31T05:50:36.456Z,5.80
2018-08-31T05:53:03.511Z,5.37
2018-08-31T05:55:30.560Z,4.97
2018-08-31T05:57:57.713Z,7.65
2018-08-31T06:00:24.929Z,4.95
2018-08-31T06:02:52.013Z,5.28
2018-08-31T06:05:19.056Z,6.57
2018-08-31T06:07:46.075Z,5.03
2018-08-31T06:10:13.159Z,5.97
2018-08-31T06:12:40.205Z,5.22
2018-08-31T06:15:07.354Z,5.53
2018-08-31T06:17:34.401Z,5.40
2018-08-31T06:20:01.413Z,6.05
2018-08-31T06:22:46.456Z,5.40
2018-08-31T06:25:22.247Z,5.55
2018-08-31T06:27:49.286Z,8.25
2018-08-31T06:30:16.371Z,7.30
2018-08-31T06:32:44.678Z,7.05
2018-08-31T06:35:11.800Z,9.57
2018-08-31T06:37:38.951Z,5.60
2018-08-31T06:40:06.313Z,6.70
2018-08-31T06:42:33.355Z,6.70
2018-08-31T06:45:00.507Z,6.07
2018-08-31T06:47:27.965Z,6.35
2018-08-31T06:49:55.745Z,7.22
2018-08-31T06:52:22.885Z,6.18
2018-08-31T06:54:49.929Z,4.90
2018-08-31T06:57:17.182Z,7.20
2018-08-31T06:59:44.231Z,5.12
2018-08-31T07:02:11.285Z,5.93
2018-08-31T07:04:38.745Z,6.65
2018-08-31T07:07:07.940Z,6.55
2018-08-31T07:09:34.985Z,5.43
2018-08-31T07:12:02.547Z,6.30
2018-08-31T07:14:29.596Z,8.00
2018-08-31T07:17:17.757Z,8.32
2018-08-31T07:19:44.928Z,6.87
2018-08-31T07:22:12.042Z,8.15
2018-08-31T07:24:39.090Z,10.68
2018-08-31T07:27:06.145Z,7.70
2018-08-31T07:29:33.185Z,6.78
2018-08-31T07:32:21.109Z,7.30
2018-08-31T07:34:48.178Z,6.20
2018-08-31T07:37:15.229Z,8.90
2018-08-31T07:39:42.271Z,6.78
2018-08-31T07:42:09.324Z,6.35
2018-08-31T07:44:36.369Z,6.65
2018-08-31T07:47:03.417Z,5.05
2018-08-31T07:49:30.568Z,7.55
2018-08-31T07:51:58.030Z,5.00
2018-08-31T07:54:25.082Z,5.40
2018-08-31T07:56:52.128Z,8.55
2018-08-31T07:59:19.174Z,7.00
2018-08-31T08:01:46.228Z,6.30
2018-08-31T08:04:13.379Z,4.18
2018-08-31T08:06:40.420Z,6.37
2018-08-31T08:09:07.470Z,4.93
2018-08-31T08:11:34.527Z,5.18
2018-08-31T08:14:01.568Z,6.25
2018-08-31T08:16:28.717Z,5.37
2018-08-31T08:18:55.868Z,5.05
2018-08-31T08:21:23.020Z,6.22
2018-08-31T08:23:50.587Z,6.03
2018-08-31T08:26:17.629Z,5.93
2018-08-31T08:28:44.678Z,4.75
2018-08-31T08:31:12.316Z,6.85
2018-08-31T08:33:39.390Z,6.00
2018-08-31T08:36:06.646Z,5.30
2018-08-31T08:38:34.412Z,6.05
2018-08-31T08:41:01.564Z,5.53
2018-08-31T08:43:28.741Z,6.03
2018-08-31T08:45:56.269Z,5.00
2018-08-31T08:48:23.371Z,5.90
2018-08-31T08:50:56.312Z,5.62
2018-08-31T08:53:23.356Z,6.57
2018-08-31T08:55:50.406Z,6.75
2018-08-31T08:58:33.249Z,9.15
2018-08-31T09:01:00.277Z,6.62
2018-08-31T09:03:27.525Z,6.22
2018-08-31T09:05:54.578Z,7.18
2018-08-31T09:08:21.624Z,6.97
2018-08-31T09:10:48.671Z,6.65
2018-08-31T09:13:15.925Z,8.15
2018-08-31T09:15:43.075Z,7.85
2018-08-31T09:18:11.351Z,7.50
2018-08-31T09:20:38.425Z,7.00
2018-08-31T09:23:05.559Z,6.75
2018-08-31T09:25:32.708Z,6.03
2018-08-31T09:27:59.751Z,5.95
2018-08-31T09:30:27.414Z,5.97
2018-08-31T09:32:54.471Z,5.70
2018-08-31T09:35:39.644Z,6.97
2018-08-31T09:38:06.685Z,11.23
2018-08-31T09:40:33.837Z,6.22
2018-08-31T09:43:00.890Z,7.72
2018-08-31T09:45:27.947Z,8.95
2018-08-31T09:47:55.289Z,8.45
2018-08-31T09:50:23.879Z,9.68
2018-08-31T09:52:52.566Z,6.10
2018-08-31T09:55:19.982Z,7.40
2018-08-31T09:57:47.069Z,5.93
2018-08-31T10:00:15.145Z,5.85
2018-08-31T10:02:43.400Z,6.07
2018-08-31T10:05:10.471Z,6.40
2018-08-31T10:07:38.446Z,7.20
2018-08-31T10:10:05.792Z,9.70
2018-08-31T10:12:32.943Z,5.75
2018-08-31T10:14:59.996Z,5.95
2018-08-31T10:17:27.043Z,6.47
2018-08-31T10:19:54.089Z,5.75
2018-08-31T10:22:21.450Z,5.72
2018-08-31T10:24:48.601Z,7.22
2018-08-31T10:27:15.643Z,5.70
2018-08-31T10:29:43.103Z,5.20
2018-08-31T10:32:10.151Z,5.05
2018-08-31T10:34:37.270Z,5.35
2018-08-31T10:37:04.356Z,5.28
2018-08-31T10:39:31.399Z,5.45
2018-08-31T10:41:58.452Z,6.12
2018-08-31T10:44:25.599Z,8.05
2018-08-31T10:46:52.755Z,5.78
2018-08-31T10:49:19.806Z,5.37
2018-08-31T10:51:46.955Z,5.55
2018-08-31T10:54:14.110Z,5.47
2018-08-31T10:56:41.460Z,7.68
2018-08-31T10:59:08.618Z,7.80
2018-08-31T11:01:35.759Z,5.68
2018-08-31T11:04:02.769Z,5.53
2018-08-31T11:06:29.880Z,5.70
2018-08-31T11:08:57.013Z,5.90
2018-08-31T11:11:24.054Z,10.10
2018-08-31T11:13:51.205Z,5.70
2018-08-31T11:16:18.460Z,5.30
2018-08-31T11:18:45.762Z,5.80
2018-08-31T11:21:12.867Z,5.22
2018-08-31T11:23:39.912Z,5.75
2018-08-31T11:26:07.063Z,5.47
2018-08-31T11:28:34.215Z,7.10
2018-08-31T11:31:01.271Z,5.10
2018-08-31T11:33:28.824Z,5.90
2018-08-31T11:35:55.942Z,5.55
2018-08-31T11:38:22.985Z,5.90
2018-08-31T11:40:51.198Z,5.68
2018-08-31T11:43:19.422Z,5.57
2018-08-31T11:45:46.525Z,5.85
2018-08-31T11:48:13.675Z,6.10
2018-08-31T11:50:41.608Z,5.72
2018-08-31T11:53:08.699Z,12.57
2018-08-31T11:55:35.746Z,6.93
2018-08-31T11:58:02.792Z,5.20
2018-08-31T12:00:29.944Z,10.48
2018-08-31T12:02:57.401Z,5.28
2018-08-31T12:05:24.763Z,6.28
2018-08-31T12:07:51.815Z,5.65
2018-08-31T12:10:19.162Z,5.65
2018-08-31T12:12:46.624Z,9.52
2018-08-31T12:15:13.674Z,7.45
2018-08-31T12:17:40.923Z,5.85
2018-08-31T12:20:08.789Z,6.95
2018-08-31T12:22:36.146Z,6.07
2018-08-31T12:25:03.403Z,8.27
2018-08-31T12:27:30.549Z,6.05
2018-08-31T12:29:58.316Z,6.37
2018-08-31T12:32:25.671Z,7.35
2018-08-31T12:34:52.690Z,7.00
2018-08-31T12:37:20.797Z,7.00
2018-08-31T12:39:47.948Z,6.57
2018-08-31T12:42:15.125Z,6.35
2018-08-31T12:44:42.146Z,6.12
2018-08-31T12:47:09.713Z,8.75
2018-08-31T12:49:36.859Z,6.93
2018-08-31T12:52:22.894Z,7.93
2018-08-31T12:55:07.985Z,8.30
2018-08-31T12:57:35.069Z,6.90
2018-08-31T13:00:02.234Z,8.75
2018-08-31T13:02:29.270Z,9.77
2018-08-31T13:04:56.423Z,5.65
2018-08-31T13:07:23.573Z,6.10
2018-08-31T13:09:50.624Z,5.43
2018-08-31T13:12:17.669Z,6.25
2018-08-31T13:14:44.717Z,5.75
2018-08-31T13:17:11.735Z,8.05
2018-08-31T13:19:40.126Z,7.32
2018-08-31T13:22:07.610Z,6.43
2018-08-31T13:24:34.653Z,5.90
2018-08-31T13:27:02.009Z,9.75
2018-08-31T13:29:29.776Z,5.87
2018-08-31T13:31:56.829Z,11.68
2018-08-31T13:34:28.641Z,6.85
2018-08-31T13:37:02.911Z,6.70
2018-08-31T13:39:29.958Z,6.72
2018-08-31T13:41:57.001Z,7.03
2018-08-31T13:44:24.257Z,8.90
2018-08-31T13:46:52.331Z,6.53
2018-08-31T13:49:20.403Z,7.62
2018-08-31T13:51:47.553Z,7.55
2018-08-31T13:54:14.602Z,7.72
2018-08-31T13:56:42.469Z,7.68
2018-08-31T13:59:09.492Z,7.53
2018-08-31T14:01:36.561Z,8.88
2018-08-31T14:04:03.615Z,7.25
2018-08-31T14:06:30.659Z,9.68
2018-08-31T14:08:57.809Z,8.02
2018-08-31T14:11:24.856Z,13.00
2018-08-31T14:13:51.870Z,7.03
2018-08-31T14:16:18.960Z,6.43
2018-08-31T14:18:46.279Z,10.45
2018-08-31T14:21:13.482Z,9.15
2018-08-31T14:23:40.408Z,6.85
2018-08-31T14:26:07.458Z,7.75
2018-08-31T14:28:34.907Z,8.82
2018-08-31T14:31:02.168Z,7.32
2018-08-31T14:33:30.241Z,8.05
2018-08-31T14:36:16.053Z,8.40
2018-08-31T14:38:43.084Z,10.57
2018-08-31T14:41:10.415Z,13.25
2018-08-31T14:43:37.584Z,9.27
2018-08-31T14:46:04.938Z,7.30
2018-08-31T14:48:31.993Z,10.52
2018-08-31T14:51:02.544Z,8.70
2018-08-31T14:53:30.598Z,7.12
2018-08-31T14:55:57.640Z,9.50
2018-08-31T14:58:24.901Z,8.80
2018-08-31T15:00:51.943Z,8.40
2018-08-31T15:03:18.992Z,7.80
2018-08-31T15:05:46.117Z,6.85
2018-08-31T15:08:13.395Z,8.73
2018-08-31T15:10:40.445Z,7.35
2018-08-31T15:13:07.612Z,8.02
2018-08-31T15:15:34.747Z,8.65
2018-08-31T15:18:01.897Z,9.82
2018-08-31T15:20:30.362Z,10.32
2018-08-31T15:22:57.429Z,11.82
2018-08-31T15:25:42.999Z,10.35
2018-08-31T15:28:29.867Z,7.43
2018-08-31T15:30:57.082Z,18.87
2018-08-31T15:33:24.228Z,10.00
2018-08-31T15:35:51.348Z,8.68
2018-08-31T15:38:18.697Z,8.82
2018-08-31T15:40:45.789Z,8.35
2018-08-31T15:43:12.939Z,8.00
2018-08-31T15:45:40.090Z,7.47
2018-08-31T15:48:07.241Z,8.88
2018-08-31T15:50:34.735Z,7.53
2018-08-31T15:53:01.742Z,8.60
2018-08-31T15:55:29.510Z,7.50
2018-08-31T15:57:56.558Z,7.50
2018-08-31T16:00:23.917Z,9.60
2018-08-31T16:02:51.068Z,7.72
2018-08-31T16:05:19.238Z,8.13
2018-08-31T16:07:46.255Z,8.00
2018-08-31T16:10:14.258Z,8.75
2018-08-31T16:12:41.616Z,6.68
2018-08-31T16:15:27.741Z,6.68
2018-08-31T16:18:13.593Z,7.07
2018-08-31T16:20:40.694Z,8.70
2018-08-31T16:23:07.910Z,7.45
2018-08-31T16:25:34.949Z,6.70
2018-08-31T16:28:02.922Z,6.97
2018-08-31T16:30:30.174Z,9.60
2018-08-31T16:32:57.223Z,7.45
2018-08-31T16:35:24.375Z,6.53
2018-08-31T16:37:51.908Z,7.35
2018-08-31T16:40:19.194Z,7.00
2018-08-31T16:42:46.441Z,6.93
2018-08-31T16:45:13.698Z,7.53
2018-08-31T16:47:41.976Z,6.10
2018-08-31T16:50:09.225Z,7.95
2018-08-31T16:52:36.378Z,8.07
2018-08-31T16:55:03.390Z,6.72
2018-08-31T16:57:30.483Z,10.95
2018-08-31T16:59:57.951Z,8.10
2018-08-31T17:02:25.289Z,6.57
2018-08-31T17:04:52.439Z,6.32
2018-08-31T17:07:19.799Z,7.87
2018-08-31T17:09:47.155Z,7.00
2018-08-31T17:12:14.507Z,7.47
2018-08-31T17:14:41.554Z,7.45
2018-08-31T17:17:08.710Z,9.93
2018-08-31T17:19:35.759Z,9.90
2018-08-31T17:22:03.110Z,9.20
2018-08-31T17:24:30.262Z,8.60
2018-08-31T17:26:57.412Z,7.47
2018-08-31T17:29:39.527Z,7.53
2018-08-31T17:32:22.745Z,6.65
2018-08-31T17:35:06.788Z,8.73
2018-08-31T17:37:34.250Z,7.30
2018-08-31T17:40:01.399Z,6.47
2018-08-31T17:42:28.658Z,7.07
2018-08-31T17:44:55.700Z,7.75
2018-08-31T17:47:23.266Z,7.00
2018-08-31T17:49:50.315Z,10.23
2018-08-31T17:52:17.358Z,8.48
2018-08-31T17:54:52.092Z,8.45
2018-08-31T17:57:20.472Z,6.45
2018-08-31T17:59:50.349Z,8.07
2018-08-31T18:02:17.431Z,6.53
2018-08-31T18:04:44.583Z,6.30
2018-08-31T18:07:11.937Z,7.75
2018-08-31T18:10:47.704Z,7.12
2018-08-31T18:13:14.746Z,9.77
2018-08-31T18:15:42.064Z,8.25
2018-08-31T18:20:51.049Z,7.20
2018-08-31T18:23:35.510Z,6.22
2018-08-31T18:28:42.303Z,7.00
2018-08-31T18:31:09.558Z,8.90
2018-08-31T18:33:36.591Z,8.55
2018-08-31T18:36:03.831Z,9.23
2018-08-31T18:38:32.031Z,11.15
2018-08-31T18:40:59.083Z,8.05
2018-08-31T18:43:27.356Z,12.43
2018-08-31T18:46:15.801Z,9.65
2018-08-31T18:48:43.370Z,8.75
2018-08-31T18:51:10.520Z,14.73
2018-08-31T18:53:37.575Z,11.82
2018-08-31T18:56:04.725Z,9.35
2018-08-31T18:58:31.768Z,14.18
2018-08-31T19:00:59.122Z,14.93
2018-08-31T19:03:26.377Z,14.25
2018-08-31T19:05:53.530Z,8.95
2018-08-31T19:08:20.577Z,12.15
2018-08-31T19:10:48.034Z,10.60
2018-08-31T19:13:15.089Z,9.73
2018-08-31T19:15:42.133Z,15.90
2018-08-31T19:18:09.283Z,13.15
2018-08-31T19:20:36.434Z,10.57
2018-08-31T19:23:03.449Z,8.48
2018-08-31T19:25:30.537Z,10.05
2018-08-31T19:27:57.785Z,11.30
2018-08-31T19:30:24.937Z,9.93
2018-08-31T19:32:51.991Z,11.02
2018-08-31T19:35:19.037Z,9.98
2018-08-31T19:37:46.185Z,13.27
2018-08-31T19:40:13.338Z,9.98
2018-08-31T19:42:40.596Z,13.50
2018-08-31T19:45:07.798Z,13.80
2018-08-31T19:47:35.179Z,13.38
2018-08-31T19:50:02.433Z,17.80
2018-08-31T19:52:29.461Z,11.45
2018-08-31T19:54:56.633Z,13.13
2018-08-31T19:57:23.885Z,12.13
2018-08-31T19:59:50.932Z,14.10
2018-08-31T20:02:18.187Z,16.42
2018-08-31T20:04:45.444Z,20.58
2018-08-31T20:07:12.487Z,10.30
2018-08-31T20:09:39.535Z,12.10
2018-08-31T20:12:06.689Z,13.05
2018-08-31T20:14:33.742Z,12.65
2018-08-31T20:17:01.199Z,15.68
2018-08-31T20:19:28.350Z,11.50
2018-08-31T20:21:55.393Z,12.98
2018-08-31T20:24:41.512Z,14.05
2018-08-31T20:27:08.543Z,11.20
2018-08-31T20:29:38.336Z,12.15
2018-08-31T20:32:05.401Z,11.93
2018-08-31T20:34:32.519Z,11.50
2018-08-31T20:36:59.703Z,11.75
2018-08-31T20:39:26.855Z,10.60
2018-08-31T20:41:53.908Z,13.23
2018-08-31T20:44:20.949Z,11.18
2018-08-31T20:46:47.999Z,11.12
2018-08-31T20:49:15.052Z,12.32
2018-08-31T20:51:42.209Z,11.85
2018-08-31T20:54:09.269Z,12.90
2018-08-31T20:56:36.296Z,14.85
2018-08-31T20:59:03.447Z,18.50
2018-08-31T21:01:31.113Z,11.02
2018-08-31T21:03:58.269Z,10.88
2018-08-31T21:06:25.418Z,15.43
2018-08-31T21:08:52.939Z,10.90
2018-08-31T21:11:20.026Z,11.77
2018-08-31T21:13:47.177Z,16.17
2018-08-31T21:16:15.265Z,11.38
2018-08-31T21:18:43.798Z,14.15
2018-08-31T21:21:10.878Z,13.77
2018-08-31T21:23:37.930Z,12.27
2018-08-31T21:26:05.795Z,10.18
2018-08-31T21:28:32.849Z,10.98
2018-08-31T21:31:00.712Z,10.82
2018-08-31T21:33:27.964Z,10.18
2018-08-31T21:35:55.011Z,9.82
2018-08-31T21:38:22.067Z,9.65
2018-08-31T21:40:49.110Z,12.15
2018-08-31T21:43:16.159Z,10.68
2018-08-31T21:45:43.211Z,10.57
2018-08-31T21:48:10.365Z,10.70
2018-08-31T21:50:37.715Z,12.25
2018-08-31T21:53:04.763Z,13.55
2018-08-31T21:55:31.913Z,11.50
2018-08-31T21:57:58.968Z,10.63
2018-08-31T22:00:26.012Z,11.45
2018-08-31T22:02:53.269Z,12.32
2018-08-31T22:05:20.517Z,11.30
2018-08-31T22:07:47.668Z,11.02
2018-08-31T22:10:14.683Z,13.07
2018-08-31T22:12:41.764Z,11.48
2018-08-31T22:15:08.918Z,10.90
2018-08-31T22:17:40.421Z,12.95
2018-08-31T22:20:07.520Z,13.55
2018-08-31T22:22:34.568Z,14.73
2018-08-31T22:25:01.622Z,11.40
2018-08-31T22:27:28.668Z,14.50
2018-08-31T22:29:56.233Z,11.48
2018-08-31T22:32:23.275Z,13.55
2018-08-31T22:34:50.323Z,11.57
2018-08-31T22:37:17.889Z,13.82
2018-08-31T22:39:44.938Z,12.32
2018-08-31T22:42:11.988Z,13.10
2018-08-31T22:44:39.339Z,13.05
2018-08-31T22:47:06.389Z,14.20
2018-08-31T22:49:33.650Z,12.70
2018-08-31T22:52:01.098Z,10.77
2018-08-31T22:54:28.144Z,11.23
2018-08-31T22:56:55.204Z,13.55
2018-08-31T22:59:24.140Z,11.45
2018-08-31T23:01:51.237Z,10.93
2018-08-31T23:04:18.287Z,11.38
2018-08-31T23:06:46.261Z,14.18
2018-08-31T23:09:13.304Z,13.27
2018-08-31T23:11:40.432Z,10.85
2018-08-31T23:14:08.120Z,13.10
2018-08-31T23:16:35.172Z,13.48
2018-08-31T23:19:02.217Z,13.85
2018-08-31T23:21:29.267Z,15.43
2018-08-31T23:23:56.320Z,11.30
2018-08-31T23:26:23.469Z,14.00
2018-08-31T23:28:50.514Z,13.00
2018-08-31T23:31:17.562Z,14.98
2018-08-31T23:33:44.616Z,11.82
2018-08-31T23:36:11.659Z,13.48
2018-08-31T23:38:38.710Z,13.73
2018-08-31T23:41:06.683Z,18.15
2018-08-31T23:43:33.727Z,12.40
2018-08-31T23:46:00.775Z,13.48
2018-08-31T23:48:27.927Z,13.23
2018-08-31T23:50:54.980Z,13.23
2018-08-31T23:53:22.029Z,12.75
2018-08-31T23:55:49.072Z,13.73
2018-08-31T23:58:16.125Z,11.38
